createdAt,value
2023-05-15T00:00:44.249Z,9.10
2023-05-15T00:03:12.337Z,9.10
2023-05-15T00:05:40.008Z,9.10
2023-05-15T00:08:06.966Z,9.10
2023-05-15T00:10:33.773Z,9.20
2023-05-15T00:13:00.577Z,9.20
2023-05-15T00:15:27.583Z,9.20
2023-05-15T00:17:54.617Z,9.30
2023-05-15T00:20:21.517Z,9.30
2023-05-15T00:22:48.334Z,9.40
2023-05-15T00:25:15.292Z,9.40
2023-05-15T00:27:42.108Z,9.40
2023-05-15T00:30:09.463Z,9.50
2023-05-15T00:32:36.283Z,9.50
2023-05-15T00:35:03.232Z,9.50
2023-05-15T00:37:30.964Z,9.50
2023-05-15T00:39:57.750Z,9.50
2023-05-15T00:42:25.834Z,9.60
2023-05-15T00:44:53.763Z,9.60
2023-05-15T00:47:22.355Z,9.60
2023-05-15T00:49:51.175Z,9.60
2023-05-15T00:52:20.639Z,9.60
2023-05-15T00:54:48.477Z,9.60
2023-05-15T00:57:17.111Z,9.60
2023-05-15T00:59:45.428Z,9.60
2023-05-15T01:02:15.889Z,9.60
2023-05-15T01:04:42.828Z,9.60
2023-05-15T01:07:09.593Z,9.60
2023-05-15T01:09:38.468Z,9.70
2023-05-15T01:12:09.305Z,9.70
2023-05-15T01:14:36.054Z,9.70
2023-05-15T01:17:03.185Z,9.70
2023-05-15T01:19:30.875Z,9.70
2023-05-15T01:22:28.955Z,9.60
2023-05-15T01:25:35.715Z,9.60
2023-05-15T01:28:25.457Z,9.60
2023-05-15T01:30:55.223Z,9.60
2023-05-15T01:33:29.581Z,9.60
2023-05-15T01:36:05.888Z,9.50
2023-05-15T01:38:55.832Z,9.50
2023-05-15T01:41:31.604Z,9.50
2023-05-15T01:44:20.162Z,9.40
2023-05-15T01:46:51.133Z,9.40
2023-05-15T01:49:19.788Z,9.40
2023-05-15T01:51:50.903Z,9.40
2023-05-15T01:54:19.423Z,9.40
2023-05-15T01:56:46.443Z,9.40
2023-05-15T01:59:15.263Z,9.50
2023-05-15T02:01:42.805Z,9.40
2023-05-15T02:04:11.208Z,9.40
2023-05-15T02:06:39.522Z,9.40
2023-05-15T02:09:07.667Z,9.40
2023-05-15T02:11:35.172Z,9.40
2023-05-15T02:14:04.965Z,9.40
2023-05-15T02:16:31.880Z,9.40
2023-05-15T02:18:58.794Z,9.40
2023-05-15T02:21:26.110Z,9.40
2023-05-15T02:23:52.904Z,9.40
2023-05-15T02:26:47.633Z,9.30
2023-05-15T02:29:31.642Z,9.30
2023-05-15T02:32:14.673Z,9.30
2023-05-15T02:35:04.932Z,9.30
2023-05-15T02:37:35.018Z,9.30
2023-05-15T02:40:06.979Z,9.30
2023-05-15T02:42:36.124Z,9.20
2023-05-15T02:45:04.327Z,9.20
2023-05-15T02:47:32.916Z,9.10
2023-05-15T02:50:01.404Z,9.10
2023-05-15T02:52:28.269Z,9.00
2023-05-15T02:54:55.079Z,9.00
2023-05-15T02:57:21.932Z,9.00
2023-05-15T02:59:48.870Z,9.00
2023-05-15T03:02:15.770Z,9.00
2023-05-15T03:04:42.666Z,9.00
2023-05-15T03:07:09.511Z,9.00
2023-05-15T03:09:36.428Z,8.90
2023-05-15T03:12:03.279Z,8.90
2023-05-15T03:14:30.074Z,8.90
2023-05-15T03:16:56.833Z,8.90
2023-05-15T03:19:23.626Z,8.90
2023-05-15T03:21:50.390Z,8.90
2023-05-15T03:24:17.217Z,8.90
2023-05-15T03:26:45.103Z,8.90
2023-05-15T03:29:13.115Z,8.90
2023-05-15T03:31:39.868Z,8.90
2023-05-15T03:34:06.717Z,8.90
2023-05-15T03:36:33.504Z,8.80
2023-05-15T03:39:00.377Z,8.80
2023-05-15T03:41:27.914Z,8.80
2023-05-15T03:43:54.726Z,8.70
2023-05-15T03:46:21.529Z,8.70
2023-05-15T03:48:48.314Z,8.70
2023-05-15T03:51:15.334Z,8.70
2023-05-15T03:53:42.116Z,8.60
2023-05-15T03:56:08.979Z,8.60
2023-05-15T03:58:35.862Z,8.60
2023-05-15T04:01:02.708Z,8.50
2023-05-15T04:03:29.539Z,8.50
2023-05-15T04:05:56.387Z,8.50
2023-05-15T04:08:23.146Z,8.50
2023-05-15T04:10:49.907Z,8.40
2023-05-15T04:13:16.631Z,8.40
2023-05-15T04:15:43.426Z,8.40
2023-05-15T04:18:10.206Z,8.40
2023-05-15T04:20:36.951Z,8.40
2023-05-15T04:23:06.518Z,8.40
2023-05-15T04:25:33.331Z,8.40
2023-05-15T04:28:00.143Z,8.40
2023-05-15T04:30:26.951Z,8.30
2023-05-15T04:32:53.967Z,8.40
2023-05-15T04:35:20.787Z,8.40
2023-05-15T04:37:47.700Z,8.40
2023-05-15T04:40:17.280Z,8.40
2023-05-15T04:42:44.065Z,8.40
2023-05-15T04:45:11.089Z,8.50
2023-05-15T04:47:38.333Z,8.50
2023-05-15T04:50:06.710Z,8.60
2023-05-15T04:52:33.680Z,8.70
2023-05-15T04:55:00.831Z,8.70
2023-05-15T04:57:28.040Z,8.80
2023-05-15T04:59:54.856Z,8.80
2023-05-15T05:02:22.704Z,8.90
2023-05-15T05:04:49.960Z,9.00
2023-05-15T05:07:17.112Z,9.00
2023-05-15T05:09:44.399Z,9.10
2023-05-15T05:12:11.619Z,9.10
2023-05-15T05:14:40.634Z,9.20
2023-05-15T05:17:07.539Z,9.20
2023-05-15T05:19:34.333Z,9.30
2023-05-15T05:22:04.708Z,9.40
2023-05-15T05:24:32.204Z,9.40
2023-05-15T05:26:59.129Z,9.50
2023-05-15T05:29:26.182Z,9.60
2023-05-15T05:31:53.537Z,9.70
2023-05-15T05:34:20.568Z,9.90
2023-05-15T05:36:47.529Z,10.00
2023-05-15T05:39:16.228Z,10.10
2023-05-15T05:41:43.778Z,10.20
2023-05-15T05:44:10.646Z,10.40
2023-05-15T05:46:37.514Z,10.60
2023-05-15T05:49:04.368Z,10.80
2023-05-15T05:51:31.763Z,11.00
2023-05-15T05:53:58.649Z,11.20
2023-05-15T05:56:26.570Z,11.40
2023-05-15T05:58:53.652Z,11.60
2023-05-15T06:01:21.061Z,11.80
2023-05-15T06:03:48.147Z,12.00
2023-05-15T06:06:15.036Z,12.10
2023-05-15T06:08:41.838Z,12.20
2023-05-15T06:11:08.651Z,12.20
2023-05-15T06:13:35.889Z,12.30
2023-05-15T06:16:02.796Z,12.50
2023-05-15T06:18:29.699Z,12.60
2023-05-15T06:20:58.853Z,12.80
2023-05-15T06:23:26.679Z,13.00
2023-05-15T06:25:53.535Z,13.30
2023-05-15T06:28:20.356Z,13.60
2023-05-15T06:30:47.237Z,13.90
2023-05-15T06:33:14.103Z,14.20
2023-05-15T06:35:41.338Z,14.40
2023-05-15T06:38:08.193Z,14.50
2023-05-15T06:40:35.460Z,14.60
2023-05-15T06:43:02.261Z,14.90
2023-05-15T06:45:29.204Z,15.10
2023-05-15T06:47:57.043Z,15.40
2023-05-15T06:50:24.923Z,15.60
2023-05-15T06:52:51.758Z,15.70
2023-05-15T06:55:18.668Z,15.90
2023-05-15T06:57:45.411Z,16.20
2023-05-15T07:00:12.919Z,16.50
2023-05-15T07:02:39.715Z,16.60
2023-05-15T07:05:07.222Z,16.90
2023-05-15T07:07:34.025Z,17.00
2023-05-15T07:10:00.757Z,17.20
2023-05-15T07:12:27.576Z,17.20
2023-05-15T07:14:54.439Z,17.30
2023-05-15T07:17:21.367Z,17.30
2023-05-15T07:19:48.178Z,17.20
2023-05-15T07:22:14.923Z,17.00
2023-05-15T07:24:41.723Z,16.90
2023-05-15T07:27:08.523Z,17.00
2023-05-15T07:29:35.272Z,17.10
2023-05-15T07:32:02.079Z,17.20
2023-05-15T07:34:28.963Z,17.10
2023-05-15T07:36:55.727Z,17.10
2023-05-15T07:39:22.555Z,17.20
2023-05-15T07:41:49.849Z,17.50
2023-05-15T07:44:16.619Z,17.80
2023-05-15T07:46:43.478Z,18.30
2023-05-15T07:49:10.558Z,18.80
2023-05-15T07:51:37.616Z,19.00
2023-05-15T07:54:04.781Z,19.40
2023-05-15T07:56:32.577Z,19.80
2023-05-15T07:58:59.410Z,20.30
2023-05-15T08:01:26.272Z,20.80
2023-05-15T08:03:53.119Z,21.30
2023-05-15T08:06:20.215Z,21.80
2023-05-15T08:08:47.003Z,22.40
2023-05-15T08:11:13.802Z,22.80
2023-05-15T08:13:40.648Z,23.00
2023-05-15T08:16:07.580Z,23.10
2023-05-15T08:18:34.561Z,23.10
2023-05-15T08:21:02.463Z,23.40
2023-05-15T08:23:30.391Z,23.70
2023-05-15T08:25:57.164Z,24.00
2023-05-15T08:28:23.981Z,24.00
2023-05-15T08:30:50.811Z,24.00
2023-05-15T08:33:17.634Z,24.20
2023-05-15T08:35:44.612Z,24.60
2023-05-15T08:38:11.388Z,24.80
2023-05-15T08:40:40.237Z,24.60
2023-05-15T08:43:15.613Z,24.30
2023-05-15T08:45:43.333Z,24.10
2023-05-15T08:48:19.527Z,24.60
2023-05-15T08:50:47.111Z,24.50
2023-05-15T08:53:14.303Z,24.40
2023-05-15T08:55:42.203Z,24.40
2023-05-15T08:58:09.437Z,24.70
2023-05-15T09:00:37.526Z,25.30
2023-05-15T09:03:05.109Z,25.40
2023-05-15T09:05:32.337Z,24.90
2023-05-15T09:08:01.989Z,24.30
2023-05-15T09:10:29.866Z,23.80
2023-05-15T09:12:57.850Z,23.30
2023-05-15T09:15:25.842Z,23.20
2023-05-15T09:17:52.948Z,23.30
2023-05-15T09:20:40.439Z,23.50
2023-05-15T09:23:23.157Z,24.10
2023-05-15T09:25:53.456Z,24.80
2023-05-15T09:28:33.812Z,25.50
2023-05-15T09:31:05.446Z,25.40
2023-05-15T09:33:40.221Z,24.80
2023-05-15T09:36:08.750Z,24.20
2023-05-15T09:38:41.606Z,23.70
2023-05-15T09:41:09.338Z,23.30
2023-05-15T09:43:40.925Z,22.90
2023-05-15T09:46:09.547Z,23.30
2023-05-15T09:48:36.888Z,23.80
2023-05-15T09:51:07.580Z,24.50
2023-05-15T09:53:35.780Z,24.50
2023-05-15T09:56:03.496Z,24.60
2023-05-15T09:58:30.380Z,24.30
2023-05-15T10:01:01.030Z,24.60
2023-05-15T10:03:27.995Z,25.10
2023-05-15T10:06:03.397Z,24.70
2023-05-15T10:08:30.542Z,24.00
2023-05-15T10:11:00.935Z,23.20
2023-05-15T10:13:31.459Z,22.60
2023-05-15T10:15:59.039Z,22.20
2023-05-15T10:18:30.427Z,22.00
2023-05-15T10:21:01.274Z,21.80
2023-05-15T10:23:29.674Z,21.60
2023-05-15T10:26:03.207Z,21.50
2023-05-15T10:28:31.668Z,21.50
2023-05-15T10:31:01.673Z,21.40
2023-05-15T10:33:30.066Z,21.60
2023-05-15T10:35:58.618Z,22.10
2023-05-15T10:38:26.583Z,22.60
2023-05-15T10:41:09.121Z,22.50
2023-05-15T10:43:43.506Z,22.20
2023-05-15T10:46:11.491Z,21.70
2023-05-15T10:48:39.092Z,21.20
2023-05-15T10:51:13.372Z,20.90
2023-05-15T10:53:40.536Z,20.60
2023-05-15T10:56:13.769Z,20.40
2023-05-15T10:58:48.315Z,20.40
2023-05-15T11:01:27.985Z,20.40
2023-05-15T11:04:14.674Z,20.40
2023-05-15T11:06:46.086Z,20.50
2023-05-15T11:09:27.170Z,20.70
2023-05-15T11:11:57.077Z,21.10
2023-05-15T11:14:25.851Z,21.90
2023-05-15T11:16:57.426Z,22.80
2023-05-15T11:19:33.394Z,23.70
2023-05-15T11:22:16.891Z,24.40
2023-05-15T11:24:58.627Z,24.60
2023-05-15T11:27:26.352Z,24.20
2023-05-15T11:30:15.905Z,23.80
2023-05-15T11:33:01.616Z,23.30
2023-05-15T11:35:33.998Z,22.90
2023-05-15T11:38:10.992Z,22.40
2023-05-15T11:40:52.624Z,22.10
2023-05-15T11:43:27.253Z,21.50
2023-05-15T11:46:00.114Z,21.10
2023-05-15T11:48:41.698Z,20.80
2023-05-15T11:51:18.522Z,20.60
2023-05-15T11:53:46.030Z,20.30
2023-05-15T11:56:28.285Z,20.30
2023-05-15T11:58:57.491Z,20.20
2023-05-15T12:01:24.736Z,20.10
2023-05-15T12:03:52.317Z,20.10
2023-05-15T12:06:19.671Z,20.20
2023-05-15T12:08:52.484Z,20.20
2023-05-15T12:11:22.786Z,20.20
2023-05-15T12:13:52.793Z,20.20
2023-05-15T12:16:25.122Z,20.10
2023-05-15T12:18:52.304Z,20.10
2023-05-15T12:21:19.451Z,19.80
2023-05-15T12:24:06.359Z,19.70
2023-05-15T12:26:34.812Z,19.70
2023-05-15T12:29:02.137Z,20.10
2023-05-15T12:31:29.883Z,20.90
2023-05-15T12:33:57.301Z,21.60
2023-05-15T12:36:24.261Z,21.80
2023-05-15T12:38:51.312Z,21.70
2023-05-15T12:41:20.023Z,21.80
2023-05-15T12:43:46.920Z,21.90
2023-05-15T12:46:15.478Z,22.60
2023-05-15T12:48:42.569Z,23.40
2023-05-15T12:51:09.570Z,24.10
2023-05-15T12:53:39.827Z,24.50
2023-05-15T12:56:09.036Z,24.80
2023-05-15T12:58:36.675Z,24.70
2023-05-15T13:01:03.924Z,24.30
2023-05-15T13:03:31.955Z,24.10
2023-05-15T13:05:59.120Z,24.10
2023-05-15T13:08:26.214Z,24.10
2023-05-15T13:10:58.233Z,24.20
2023-05-15T13:13:45.815Z,24.60
2023-05-15T13:16:24.580Z,24.90
2023-05-15T13:18:52.040Z,25.10
2023-05-15T13:21:19.404Z,24.90
2023-05-15T13:23:46.373Z,25.00
2023-05-15T13:26:13.423Z,24.70
2023-05-15T13:28:40.488Z,24.50
2023-05-15T13:31:07.433Z,24.40
2023-05-15T13:33:35.726Z,24.50
2023-05-15T13:36:02.839Z,24.20
2023-05-15T13:38:29.787Z,23.90
2023-05-15T13:40:56.823Z,24.00
2023-05-15T13:43:25.830Z,24.00
2023-05-15T13:45:53.418Z,23.60
2023-05-15T13:48:20.350Z,23.40
2023-05-15T13:50:47.243Z,23.20
2023-05-15T13:53:16.996Z,23.40
2023-05-15T13:55:45.944Z,23.40
2023-05-15T13:58:13.412Z,23.10
2023-05-15T14:00:42.547Z,22.80
2023-05-15T14:03:11.235Z,22.60
2023-05-15T14:05:40.454Z,22.60
2023-05-15T14:08:07.396Z,22.70
2023-05-15T14:10:35.859Z,22.60
2023-05-15T14:13:02.776Z,22.40
2023-05-15T14:15:29.749Z,22.30
2023-05-15T14:17:56.645Z,22.10
2023-05-15T14:20:23.759Z,21.80
2023-05-15T14:22:50.682Z,21.70
2023-05-15T14:25:17.664Z,21.50
2023-05-15T14:27:44.614Z,21.20
2023-05-15T14:30:11.852Z,21.00
2023-05-15T14:32:38.785Z,20.90
2023-05-15T14:35:06.147Z,20.70
2023-05-15T14:37:33.185Z,20.70
2023-05-15T14:40:00.223Z,20.70
2023-05-15T14:42:27.381Z,20.70
2023-05-15T14:44:54.397Z,21.10
2023-05-15T14:47:21.432Z,21.20
2023-05-15T14:49:48.450Z,21.60
2023-05-15T14:52:15.699Z,22.00
2023-05-15T14:54:43.778Z,22.20
2023-05-15T14:57:12.670Z,22.40
2023-05-15T14:59:39.679Z,22.50
2023-05-15T15:02:07.059Z,22.70
2023-05-15T15:04:34.584Z,22.80
2023-05-15T15:07:05.131Z,22.90
2023-05-15T15:09:32.087Z,23.00
2023-05-15T15:11:59.099Z,23.10
2023-05-15T15:14:25.981Z,23.10
2023-05-15T15:16:52.894Z,23.20
2023-05-15T15:19:20.460Z,23.00
2023-05-15T15:21:47.728Z,22.90
2023-05-15T15:24:14.915Z,22.90
2023-05-15T15:26:41.828Z,22.80
2023-05-15T15:29:08.685Z,22.50
2023-05-15T15:31:35.767Z,22.30
2023-05-15T15:34:05.282Z,22.00
2023-05-15T15:36:32.894Z,21.70
2023-05-15T15:38:59.646Z,21.40
2023-05-15T15:41:26.492Z,21.00
2023-05-15T15:43:54.070Z,20.80
2023-05-15T15:46:21.119Z,20.50
2023-05-15T15:48:48.540Z,20.30
2023-05-15T15:51:15.353Z,20.10
2023-05-15T15:53:42.094Z,20.00
2023-05-15T15:56:08.953Z,19.80
2023-05-15T15:58:35.810Z,19.60
2023-05-15T16:01:03.018Z,19.50
2023-05-15T16:03:30.954Z,19.40
2023-05-15T16:05:59.865Z,19.40
2023-05-15T16:08:27.264Z,19.30
2023-05-15T16:10:54.892Z,19.40
2023-05-15T16:13:21.793Z,19.60
2023-05-15T16:15:48.652Z,19.70
2023-05-15T16:18:15.468Z,19.60
2023-05-15T16:20:42.342Z,19.40
2023-05-15T16:23:11.617Z,19.30
2023-05-15T16:25:38.504Z,19.10
2023-05-15T16:28:05.419Z,19.10
2023-05-15T16:30:47.384Z,19.00
2023-05-15T16:33:17.514Z,18.90
2023-05-15T16:35:44.732Z,18.70
2023-05-15T16:38:11.666Z,18.60
2023-05-15T16:40:39.017Z,18.40
2023-05-15T16:43:05.932Z,18.30
2023-05-15T16:45:32.956Z,18.20
2023-05-15T16:47:59.752Z,18.20
2023-05-15T16:50:27.028Z,18.10
2023-05-15T16:52:54.037Z,18.00
2023-05-15T16:55:20.982Z,18.00
2023-05-15T16:57:47.866Z,18.00
2023-05-15T17:00:15.876Z,17.90
2023-05-15T17:02:43.408Z,17.70
2023-05-15T17:05:11.524Z,17.50
2023-05-15T17:07:39.077Z,17.30
2023-05-15T17:10:08.032Z,17.30
2023-05-15T17:12:35.790Z,17.10
2023-05-15T17:15:03.756Z,17.10
2023-05-15T17:17:30.642Z,17.00
2023-05-15T17:19:57.734Z,17.00
2023-05-15T17:22:24.731Z,17.00
2023-05-15T17:24:54.427Z,16.90
2023-05-15T17:27:21.527Z,16.90
2023-05-15T17:29:48.522Z,16.90
2023-05-15T17:32:16.816Z,16.90
2023-05-15T17:34:44.760Z,16.80
2023-05-15T17:37:11.837Z,16.60
2023-05-15T17:39:38.684Z,16.50
2023-05-15T17:42:05.795Z,16.40
2023-05-15T17:44:32.661Z,16.30
2023-05-15T17:47:00.351Z,16.20
2023-05-15T17:49:28.448Z,16.10
2023-05-15T17:51:55.329Z,16.00
2023-05-15T17:54:22.274Z,15.90
2023-05-15T17:56:49.040Z,15.90
2023-05-15T17:59:16.159Z,15.80
2023-05-15T18:01:43.069Z,15.80
2023-05-15T18:04:10.410Z,15.70
2023-05-15T18:06:37.671Z,15.60
2023-05-15T18:09:05.141Z,15.60
2023-05-15T18:11:32.025Z,15.50
2023-05-15T18:13:59.189Z,15.40
2023-05-15T18:16:26.305Z,15.40
2023-05-15T18:18:53.400Z,15.40
2023-05-15T18:21:20.389Z,15.30
2023-05-15T18:23:47.255Z,15.30
2023-05-15T18:26:14.066Z,15.20
2023-05-15T18:28:40.935Z,15.10
2023-05-15T18:31:07.886Z,15.00
2023-05-15T18:33:34.788Z,14.90
2023-05-15T18:36:02.006Z,14.80
2023-05-15T18:38:28.951Z,14.70
2023-05-15T18:40:55.853Z,14.60
2023-05-15T18:43:22.731Z,14.50
2023-05-15T18:45:49.526Z,14.40
2023-05-15T18:48:16.566Z,14.30
2023-05-15T18:50:43.851Z,14.10
2023-05-15T18:53:10.703Z,14.10
2023-05-15T18:55:38.907Z,13.90
2023-05-15T18:58:06.061Z,13.80
2023-05-15T19:00:38.440Z,13.70
2023-05-15T19:03:06.821Z,13.50
2023-05-15T19:05:34.178Z,13.50
2023-05-15T19:08:01.463Z,13.30
2023-05-15T19:10:29.730Z,13.20
2023-05-15T19:12:57.578Z,13.10
2023-05-15T19:15:25.361Z,13.10
2023-05-15T19:17:52.625Z,13.00
2023-05-15T19:20:20.262Z,12.90
2023-05-15T19:22:47.104Z,12.80
2023-05-15T19:25:13.939Z,12.80
2023-05-15T19:27:41.264Z,12.60
2023-05-15T19:30:09.908Z,12.60
2023-05-15T19:32:37.230Z,12.50
2023-05-15T19:35:04.850Z,12.40
2023-05-15T19:37:31.664Z,12.30
2023-05-15T19:39:58.461Z,12.20
2023-05-15T19:42:26.063Z,12.10
2023-05-15T19:44:52.987Z,12.00
2023-05-15T19:47:19.832Z,12.00
2023-05-15T19:49:46.773Z,11.80
2023-05-15T19:52:13.605Z,11.70
2023-05-15T19:54:40.495Z,11.60
2023-05-15T19:57:07.483Z,11.60
2023-05-15T19:59:34.256Z,11.40
2023-05-15T20:02:02.681Z,11.30
2023-05-15T20:04:29.762Z,11.30
2023-05-15T20:06:56.607Z,11.20
2023-05-15T20:09:23.436Z,11.10
2023-05-15T20:11:50.340Z,11.00
2023-05-15T20:14:17.104Z,11.00
2023-05-15T20:16:43.958Z,10.90
2023-05-15T20:19:11.091Z,10.90
2023-05-15T20:21:39.030Z,10.80
2023-05-15T20:24:06.885Z,10.80
2023-05-15T20:26:35.976Z,10.70
2023-05-15T20:29:03.514Z,10.70
2023-05-15T20:31:30.482Z,10.80
2023-05-15T20:33:57.369Z,10.70
2023-05-15T20:36:25.627Z,10.70
2023-05-15T20:38:52.818Z,10.60
2023-05-15T20:41:22.267Z,10.60
2023-05-15T20:43:49.875Z,10.50
2023-05-15T20:46:17.030Z,10.50
2023-05-15T20:48:44.177Z,10.40
2023-05-15T20:51:11.053Z,10.30
2023-05-15T20:53:37.858Z,10.30
2023-05-15T20:56:04.759Z,10.30
2023-05-15T20:58:31.682Z,10.30
2023-05-15T21:01:00.960Z,10.30
2023-05-15T21:03:29.168Z,10.20
2023-05-15T21:05:57.528Z,10.20
2023-05-15T21:08:24.838Z,10.20
2023-05-15T21:10:53.169Z,10.20
2023-05-15T21:13:20.062Z,10.10
2023-05-15T21:15:47.052Z,10.10
2023-05-15T21:18:14.160Z,10.10
2023-05-15T21:20:41.758Z,10.00
2023-05-15T21:23:08.742Z,10.00
2023-05-15T21:25:35.616Z,9.90
2023-05-15T21:28:02.599Z,9.90
2023-05-15T21:30:29.577Z,9.80
2023-05-15T21:32:56.628Z,9.70
2023-05-15T21:35:25.110Z,9.60
2023-05-15T21:37:51.876Z,9.50
2023-05-15T21:40:18.832Z,9.40
2023-05-15T21:42:45.965Z,9.40
2023-05-15T21:45:12.934Z,9.30
2023-05-15T21:47:40.395Z,9.30
2023-05-15T21:50:07.465Z,9.20
2023-05-15T21:52:34.503Z,9.20
2023-05-15T21:55:01.329Z,9.10
2023-05-15T21:57:28.811Z,9.00
2023-05-15T21:59:55.688Z,9.00
2023-05-15T22:02:22.710Z,8.90
2023-05-15T22:04:49.611Z,8.90
2023-05-15T22:07:16.536Z,8.80
2023-05-15T22:09:43.871Z,8.80
2023-05-15T22:12:11.080Z,8.80
2023-05-15T22:14:44.263Z,8.80
2023-05-15T22:17:19.053Z,8.80
2023-05-15T22:19:46.292Z,8.70
2023-05-15T22:22:13.778Z,8.70
2023-05-15T22:24:40.738Z,8.70
2023-05-15T22:27:07.537Z,8.80
2023-05-15T22:29:34.385Z,8.80
2023-05-15T22:32:01.357Z,8.70
2023-05-15T22:34:29.856Z,8.70
2023-05-15T22:36:56.994Z,8.60
2023-05-15T22:39:23.886Z,8.60
2023-05-15T22:41:50.691Z,8.60
2023-05-15T22:44:17.525Z,8.50
2023-05-15T22:46:44.412Z,8.50
2023-05-15T22:49:19.018Z,8.50
2023-05-15T22:51:45.942Z,8.50
2023-05-15T22:54:12.727Z,8.50
2023-05-15T22:56:39.480Z,8.50
2023-05-15T22:59:06.713Z,8.50
2023-05-15T23:01:33.696Z,8.50
2023-05-15T23:04:00.710Z,8.60
2023-05-15T23:06:27.531Z,8.60
2023-05-15T23:08:54.489Z,8.60
2023-05-15T23:11:21.431Z,8.60
2023-05-15T23:13:48.209Z,8.50
2023-05-15T23:16:14.989Z,8.50
2023-05-15T23:18:42.200Z,8.40
2023-05-15T23:21:09.117Z,8.40
2023-05-15T23:23:36.047Z,8.40
2023-05-15T23:26:02.898Z,8.30
2023-05-15T23:28:29.720Z,8.20
2023-05-15T23:30:56.654Z,8.20
2023-05-15T23:33:23.482Z,8.20
2023-05-15T23:35:50.341Z,8.20
2023-05-15T23:38:17.197Z,8.20
2023-05-15T23:40:44.015Z,8.10
2023-05-15T23:43:11.052Z,8.10
2023-05-15T23:45:37.897Z,8.10
2023-05-15T23:48:04.843Z,8.10
2023-05-15T23:50:31.857Z,7.90
2023-05-15T23:52:58.623Z,7.90
2023-05-15T23:55:25.496Z,7.70
2023-05-15T23:57:52.298Z,7.70
